Time;durP1;ratioP1;P1;durP2;ratioP2;P2;SDS_P1;SDS_P2;PMS_P1;PMS_P2;Temp;Humidity;BMP_temperature;BMP_pressure;BME280_temperature;BME280_humidity;BME280_pressure;Samples;Min_cycle;Max_cycle;Signal;HPM_P1;HPM_P2
2024/02/23 00:01:06;;;;;;;3.00;2.70;;;;;;;9.34;100.00;97001.64;109206;1256;65114;-73
2024/02/23 00:03:51;;;;;;;3.30;2.60;;;;;;;9.34;100.00;97001.81;109166;1255;60860;-73
2024/02/23 00:06:18;;;;;;;2.70;2.50;;;;;;;9.34;100.00;97004.64;108982;1256;60614;-72
2024/02/23 00:08:44;;;;;;;2.40;2.20;;;;;;;9.36;100.00;97003.10;109182;1256;65533;-73
2024/02/23 00:11:11;;;;;;;4.90;3.00;;;;;;;9.37;100.00;97002.92;108934;1257;60079;-73
2024/02/23 00:13:38;;;;;;;2.40;2.20;;;;;;;9.39;100.00;97000.68;109164;1256;65105;-74
2024/02/23 00:16:04;;;;;;;2.80;2.20;;;;;;;9.39;100.00;96998.31;109199;1257;59873;-73
2024/02/23 00:18:31;;;;;;;2.80;2.60;;;;;;;9.39;100.00;96994.07;109018;1260;59934;-74
2024/02/23 00:20:58;;;;;;;3.10;2.80;;;;;;;9.39;100.00;96989.62;109199;1256;67806;-72
2024/02/23 00:23:24;;;;;;;2.90;2.50;;;;;;;9.39;100.00;96992.28;109154;1257;60066;-73
2024/02/23 00:25:51;;;;;;;3.10;2.80;;;;;;;9.38;100.00;96990.80;109009;1256;64546;-74
2024/02/23 00:28:18;;;;;;;4.50;2.70;;;;;;;9.37;100.00;96992.17;109291;1254;59816;-74
2024/02/23 00:30:44;;;;;;;3.20;2.50;;;;;;;9.36;100.00;96986.58;109290;1254;59989;-73
2024/02/23 00:33:11;;;;;;;3.50;2.60;;;;;;;9.34;100.00;96982.67;109261;1254;66504;-73
2024/02/23 00:35:38;;;;;;;3.10;2.60;;;;;;;9.33;100.00;96982.29;109299;1254;61062;-72
2024/02/23 00:38:04;;;;;;;3.70;2.80;;;;;;;9.32;100.00;96982.32;109292;1254;64088;-73
2024/02/23 00:40:31;;;;;;;3.00;2.70;;;;;;;9.33;100.00;96978.56;109283;1254;59775;-73
2024/02/23 00:43:00;;;;;;;3.90;2.90;;;;;;;9.32;100.00;96979.48;109291;1254;60203;-72
2024/02/23 00:45:26;;;;;;;3.50;2.90;;;;;;;9.31;100.00;96981.54;109090;1254;67025;-73
2024/02/23 00:47:53;;;;;;;3.80;3.20;;;;;;;9.30;100.00;96975.67;109293;1254;60203;-73
2024/02/23 00:50:20;;;;;;;3.10;2.70;;;;;;;9.28;100.00;96969.65;109256;1254;64936;-73
2024/02/23 00:52:47;;;;;;;3.20;2.60;;;;;;;9.25;100.00;96971.50;109255;1254;59758;-74
2024/02/23 00:55:13;;;;;;;2.70;2.30;;;;;;;9.22;100.00;96972.66;109306;1254;59823;-73
2024/02/23 00:57:40;;;;;;;4.20;2.50;;;;;;;9.19;100.00;96974.69;109264;1254;67838;-73
2024/02/23 01:00:09;;;;;;;3.60;2.60;;;;;;;9.18;100.00;96975.20;109314;1254;59913;-74
2024/02/23 01:02:35;;;;;;;4.20;3.40;;;;;;;9.15;100.00;96978.41;109290;1254;62400;-74
2024/02/23 01:05:02;;;;;;;6.30;5.80;;;;;;;9.13;100.00;96976.85;109286;1254;60325;-73
2024/02/23 01:07:29;;;;;;;5.10;4.30;;;;;;;9.12;100.00;96975.84;109280;1254;59803;-73
2024/02/23 01:09:56;;;;;;;3.90;3.60;;;;;;;9.14;100.00;96976.70;109305;1254;66796;-73
2024/02/23 01:12:23;;;;;;;4.90;3.00;;;;;;;9.17;100.00;96981.80;109307;1254;60914;-73
2024/02/23 01:14:49;;;;;;;3.00;2.50;;;;;;;9.20;100.00;96983.98;109307;1254;65115;-73
2024/02/23 01:17:16;;;;;;;3.20;2.90;;;;;;;9.21;100.00;96977.64;109255;1254;59800;-73
2024/02/23 01:19:44;;;;;;;4.60;3.00;;;;;;;9.23;100.00;96973.94;109281;1254;59979;-73
2024/02/23 01:22:11;;;;;;;3.20;2.50;;;;;;;9.25;100.00;96978.61;109275;1254;66809;-73
2024/02/23 01:24:37;;;;;;;4.00;2.50;;;;;;;9.27;100.00;96980.38;109294;1254;60754;-72
2024/02/23 01:27:04;;;;;;;3.90;2.40;;;;;;;9.29;100.00;96978.07;109239;1254;65079;-73
2024/02/23 01:29:31;;;;;;;4.00;2.40;;;;;;;9.30;100.00;96973.89;109270;1254;59934;-74
2024/02/23 01:31:57;;;;;;;3.70;2.90;;;;;;;9.31;100.00;96976.55;109251;1254;60005;-73
2024/02/23 01:34:24;;;;;;;4.20;2.10;;;;;;;9.33;100.00;96984.75;109275;1254;66753;-73
2024/02/23 01:36:51;;;;;;;3.90;2.30;;;;;;;9.35;100.00;96985.80;109282;1254;61046;-74
2024/02/23 01:39:17;;;;;;;3.30;2.30;;;;;;;9.37;100.00;96988.38;109289;1254;64057;-73
2024/02/23 01:41:44;;;;;;;4.00;2.30;;;;;;;9.41;100.00;96992.14;109240;1254;60604;-74
2024/02/23 01:44:11;;;;;;;2.60;2.20;;;;;;;9.44;100.00;96993.64;109268;1254;59831;-73
2024/02/23 01:46:38;;;;;;;2.60;2.00;;;;;;;9.46;100.00;96988.31;109303;1254;68074;-73
2024/02/23 01:49:07;;;;;;;4.80;2.50;;;;;;;9.47;100.00;96987.30;109246;1258;60293;-73
2024/02/23 01:51:34;;;;;;;3.50;2.30;;;;;;;9.47;100.00;96986.43;109250;1254;65135;-73
2024/02/23 01:54:03;;;;;;;2.60;2.40;;;;;;;9.48;100.00;96981.92;109269;1254;59666;-73
2024/02/23 01:56:31;;;;;;;4.00;2.90;;;;;;;9.48;100.00;96983.38;109252;1254;60655;-73
2024/02/23 01:58:58;;;;;;;3.10;2.60;;;;;;;9.47;100.00;96982.02;109260;1254;67833;-73
2024/02/23 02:01:25;;;;;;;3.00;2.50;;;;;;;9.46;100.00;96979.11;109287;1258;60994;-73
2024/02/23 02:03:52;;;;;;;2.90;2.20;;;;;;;9.43;100.00;96974.71;109250;1254;65032;-73
2024/02/23 02:06:19;;;;;;;3.30;2.20;;;;;;;9.41;100.00;96970.87;109265;1254;59903;-73
2024/02/23 02:08:45;;;;;;;3.20;2.50;;;;;;;9.39;100.00;96965.92;109262;1254;60901;-74
2024/02/23 02:11:12;;;;;;;2.80;2.40;;;;;;;9.37;100.00;96971.98;109245;1254;67958;-73
2024/02/23 02:13:39;;;;;;;3.30;2.10;;;;;;;9.34;100.00;96976.30;109278;1254;68842;-74
2024/02/23 02:16:06;;;;;;;2.70;2.30;;;;;;;9.33;100.00;96976.05;109254;1254;64266;-73
2024/02/23 02:18:32;;;;;;;3.90;2.50;;;;;;;9.32;100.00;96976.30;109268;1254;59979;-73
2024/02/23 02:20:59;;;;;;;2.50;2.30;;;;;;;9.31;100.00;96974.31;109266;1254;59962;-73
2024/02/23 02:23:28;;;;;;;3.90;2.40;;;;;;;9.29;100.00;96970.02;109266;1254;67027;-73
2024/02/23 02:25:56;;;;;;;4.20;2.60;;;;;;;9.27;100.00;96969.48;109294;1254;59834;-73
2024/02/23 02:28:24;;;;;;;2.90;2.60;;;;;;;9.26;100.00;96974.94;109013;1254;65080;-73
2024/02/23 02:30:52;;;;;;;3.00;2.50;;;;;;;9.24;100.00;96973.50;109275;1254;59911;-73
2024/02/23 02:33:19;;;;;;;3.20;2.90;;;;;;;9.22;100.00;96972.27;109247;1254;59799;-73
2024/02/23 02:35:46;;;;;;;3.00;2.70;;;;;;;9.20;100.00;96974.42;109284;1254;67897;-72
2024/02/23 02:38:13;;;;;;;2.20;2.00;;;;;;;9.18;100.00;96974.61;109320;1254;59813;-72
2024/02/23 02:40:39;;;;;;;2.40;2.20;;;;;;;9.15;100.00;96977.16;109241;1254;64346;-73
2024/02/23 02:43:06;;;;;;;3.10;2.60;;;;;;;9.13;100.00;96972.29;109236;1254;59800;-73
2024/02/23 02:45:33;;;;;;;2.80;2.50;;;;;;;9.10;100.00;96971.31;109056;1254;59931;-73
2024/02/23 02:48:00;;;;;;;2.50;2.30;;;;;;;9.08;100.00;96971.42;109252;1254;67868;-74
2024/02/23 02:50:27;;;;;;;3.90;2.80;;;;;;;9.07;100.00;96969.47;109263;1254;61146;-72
2024/02/23 02:52:53;;;;;;;3.80;2.50;;;;;;;9.05;100.00;96972.83;109255;1254;65372;-73
2024/02/23 02:55:20;;;;;;;2.60;2.40;;;;;;;9.03;100.00;96974.61;109235;1254;60067;-73
2024/02/23 02:57:47;;;;;;;4.30;2.90;;;;;;;9.01;100.00;96973.71;109299;1254;60096;-73
2024/02/23 03:00:35;;;;;;;3.20;2.70;;;;;;;8.98;100.00;96972.52;109263;1254;67872;-73
2024/02/23 03:03:02;;;;;;;3.10;2.30;;;;;;;8.97;100.00;96970.40;109293;1254;60415;-73
2024/02/23 03:05:29;;;;;;;2.80;2.40;;;;;;;8.96;100.00;96972.27;109272;1254;65119;-73
2024/02/23 03:07:56;;;;;;;3.80;2.40;;;;;;;8.96;100.00;96971.54;109159;1254;59840;-73
2024/02/23 03:10:23;;;;;;;4.10;2.70;;;;;;;8.96;100.00;96979.98;109261;1254;59727;-73
2024/02/23 03:12:49;;;;;;;2.70;2.50;;;;;;;8.97;100.00;96981.16;109296;1254;67825;-73
2024/02/23 03:15:16;;;;;;;4.60;3.10;;;;;;;8.97;100.00;96986.16;109275;1254;61009;-73
2024/02/23 03:17:43;;;;;;;3.30;2.90;;;;;;;8.96;100.00;96986.61;109061;1254;65700;-73
2024/02/23 03:20:11;;;;;;;4.30;3.70;;;;;;;8.94;100.00;96988.12;109234;1254;59777;-74
2024/02/23 03:22:38;;;;;;;3.60;3.30;;;;;;;8.94;100.00;96990.50;109274;1254;59921;-73
2024/02/23 03:25:08;;;;;;;5.00;3.20;;;;;;;8.92;100.00;96992.29;109021;1254;65573;-74
2024/02/23 03:27:36;;;;;;;4.50;3.20;;;;;;;8.88;100.00;96994.02;109266;1254;60025;-73
2024/02/23 03:30:09;;;;;;;4.50;3.50;;;;;;;8.85;100.00;97001.81;109253;1254;65026;-73
2024/02/23 03:32:36;;;;;;;3.80;3.40;;;;;;;8.82;100.00;97004.86;109245;1254;59811;-73
2024/02/23 03:35:04;;;;;;;3.30;3.00;;;;;;;8.80;100.00;97006.67;109238;1254;59908;-73
2024/02/23 03:37:31;;;;;;;4.90;3.10;;;;;;;8.79;100.00;97011.88;109295;1254;66900;-73
2024/02/23 03:39:59;;;;;;;7.20;6.30;;;;;;;8.77;100.00;97016.94;109295;1254;61021;-74
2024/02/23 03:42:26;;;;;;;21.90;16.70;;;;;;;8.74;100.00;97023.67;109278;1254;64020;-73
2024/02/23 03:44:53;;;;;;;7.90;6.30;;;;;;;8.69;100.00;97024.15;109259;1254;59982;-74
2024/02/23 03:47:19;;;;;;;6.30;5.60;;;;;;;8.64;100.00;97024.60;109262;1254;59742;-74
2024/02/23 03:49:46;;;;;;;7.00;6.00;;;;;;;8.62;100.00;97031.73;109259;1254;66759;-72
2024/02/23 03:52:13;;;;;;;6.10;5.30;;;;;;;8.58;100.00;97033.05;109294;1254;61103;-73
2024/02/23 03:54:39;;;;;;;5.90;5.40;;;;;;;8.55;100.00;97039.18;108956;1254;62834;-73
2024/02/23 03:57:06;;;;;;;7.20;5.80;;;;;;;8.52;100.00;97039.95;109277;1254;59674;-73
2024/02/23 03:59:33;;;;;;;5.40;4.90;;;;;;;8.49;100.00;97040.64;109300;1254;59744;-73
2024/02/23 04:01:59;;;;;;;6.70;5.50;;;;;;;8.45;100.00;97039.77;109284;1254;67804;-74
2024/02/23 04:04:26;;;;;;;5.90;5.30;;;;;;;8.42;100.00;97038.98;109286;1254;60125;-73
2024/02/23 04:06:52;;;;;;;7.60;5.60;;;;;;;8.41;100.00;97041.73;109237;1254;65097;-74
2024/02/23 04:09:20;;;;;;;6.30;5.70;;;;;;;8.40;100.00;97042.34;109016;1254;60198;-72
2024/02/23 04:11:48;;;;;;;6.30;5.40;;;;;;;8.38;100.00;97046.52;109308;1254;59850;-73
2024/02/23 04:14:15;;;;;;;6.20;5.30;;;;;;;8.35;100.00;97049.05;109277;1254;67939;-73
2024/02/23 04:16:42;;;;;;;5.40;4.70;;;;;;;8.32;100.00;97049.31;109289;1254;69281;-73
2024/02/23 04:19:08;;;;;;;6.10;5.50;;;;;;;8.31;100.00;97052.66;109238;1254;64041;-73
2024/02/23 04:21:35;;;;;;;4.80;4.40;;;;;;;8.29;100.00;97052.59;109263;1254;59826;-72
2024/02/23 04:24:01;;;;;;;6.20;5.60;;;;;;;8.28;100.00;97056.92;109270;1254;60138;-73
2024/02/23 04:26:28;;;;;;;7.00;5.10;;;;;;;8.28;100.00;97049.02;109301;1254;67783;-73
2024/02/23 04:28:55;;;;;;;6.10;5.10;;;;;;;8.27;100.00;97047.29;109290;1254;61198;-74
2024/02/23 04:31:21;;;;;;;6.30;5.60;;;;;;;8.26;100.00;97050.19;109289;1254;64014;-73
2024/02/23 04:33:48;;;;;;;6.00;5.50;;;;;;;8.25;100.00;97050.48;109245;1254;59889;-72
2024/02/23 04:36:19;;;;;;;6.50;5.90;;;;;;;8.23;100.00;97048.08;109296;1255;60021;-74
2024/02/23 04:38:45;;;;;;;7.90;7.00;;;;;;;8.20;100.00;97050.78;109284;1254;67010;-73
2024/02/23 04:41:12;;;;;;;9.60;8.70;;;;;;;8.18;100.00;97053.04;109268;1254;61223;-73
2024/02/23 04:43:39;;;;;;;7.40;6.70;;;;;;;8.18;100.00;97051.54;109270;1254;65042;-73
2024/02/23 04:46:06;;;;;;;11.10;9.90;;;;;;;8.15;100.00;97059.55;109237;1254;59879;-73
2024/02/23 04:48:32;;;;;;;11.10;10.00;;;;;;;8.12;100.00;97063.33;109281;1254;59906;-73
2024/02/23 04:51:00;;;;;;;10.60;9.60;;;;;;;8.09;100.00;97060.19;109286;1254;66732;-73
2024/02/23 04:53:26;;;;;;;40.40;36.60;;;;;;;8.06;100.00;97066.13;109268;1254;60160;-73
2024/02/23 04:55:53;;;;;;;50.90;46.10;;;;;;;8.04;100.00;97071.48;109238;1254;63966;-74
2024/02/23 04:58:20;;;;;;;52.50;47.90;;;;;;;8.02;100.00;97075.69;109223;1254;59747;-72
2024/02/23 05:00:47;;;;;;;28.00;25.40;;;;;;;8.01;100.00;97076.30;109285;1254;59856;-73
2024/02/23 05:03:15;;;;;;;26.40;23.90;;;;;;;8.00;100.00;97080.42;109270;1254;68041;-72
2024/02/23 05:05:42;;;;;;;21.50;19.60;;;;;;;7.99;100.00;97085.29;109264;1254;59899;-72
2024/02/23 05:08:09;;;;;;;22.70;20.60;;;;;;;7.96;100.00;97086.48;109262;1254;63989;-73
2024/02/23 05:10:35;;;;;;;27.40;24.80;;;;;;;7.94;100.00;97089.48;109262;1254;60616;-73
2024/02/23 05:13:02;;;;;;;29.50;26.60;;;;;;;7.91;100.00;97090.40;109279;1254;59710;-72
2024/02/23 05:15:29;;;;;;;41.50;37.40;;;;;;;7.90;100.00;97093.88;109274;1254;66841;-72
2024/02/23 05:17:55;;;;;;;32.40;29.50;;;;;;;7.90;100.00;97096.23;109294;1254;60995;-74
2024/02/23 05:20:22;;;;;;;29.60;26.90;;;;;;;7.87;100.00;97097.48;109268;1254;64066;-73
2024/02/23 05:22:49;;;;;;;29.00;26.20;;;;;;;7.87;100.00;97100.67;109204;1254;60625;-73
2024/02/23 05:25:16;;;;;;;28.60;25.90;;;;;;;7.87;100.00;97101.21;109230;1254;59832;-74
2024/02/23 05:27:42;;;;;;;29.00;26.30;;;;;;;7.88;100.00;97102.88;109265;1254;67842;-73
2024/02/23 05:30:10;;;;;;;29.00;26.10;;;;;;;7.90;100.00;97107.54;109281;1254;61211;-74
2024/02/23 05:32:37;;;;;;;32.70;29.60;;;;;;;7.89;100.00;97107.91;109045;1254;64423;-73
2024/02/23 05:35:04;;;;;;;31.70;28.70;;;;;;;7.89;100.00;97105.09;109279;1254;59947;-73
2024/02/23 05:37:30;;;;;;;28.80;26.20;;;;;;;7.89;100.00;97105.45;109280;1254;59808;-72
2024/02/23 05:39:59;;;;;;;26.20;23.90;;;;;;;7.87;100.00;97108.45;109273;1254;66959;-73
2024/02/23 05:42:26;;;;;;;21.80;19.90;;;;;;;7.85;100.00;97114.81;109274;1254;61236;-73
2024/02/23 05:44:53;;;;;;;18.50;16.70;;;;;;;7.83;100.00;97121.35;109281;1254;64864;-74
2024/02/23 05:47:21;;;;;;;19.90;17.80;;;;;;;7.83;100.00;97122.96;109236;1254;59910;-73
2024/02/23 05:49:47;;;;;;;17.90;16.10;;;;;;;7.84;100.00;97120.79;109256;1254;59667;-73
2024/02/23 05:52:15;;;;;;;17.30;15.70;;;;;;;7.85;100.00;97120.32;109067;1254;67969;-73
2024/02/23 05:54:41;;;;;;;17.90;16.30;;;;;;;7.86;100.00;97128.02;109285;1254;61016;-72
2024/02/23 05:57:08;;;;;;;16.00;14.40;;;;;;;7.87;100.00;97133.93;109255;1254;64036;-73
2024/02/23 05:59:35;;;;;;;17.50;15.90;;;;;;;7.88;100.00;97137.67;109258;1254;59893;-73
2024/02/23 06:02:01;;;;;;;16.40;14.80;;;;;;;7.89;100.00;97134.83;109283;1254;59703;-74
2024/02/23 06:04:28;;;;;;;20.60;18.70;;;;;;;7.88;100.00;97139.48;109336;1254;66526;-74
2024/02/23 06:06:55;;;;;;;23.80;19.50;;;;;;;7.88;100.00;97148.70;109298;1254;61058;-72
2024/02/23 06:09:21;;;;;;;22.30;18.70;;;;;;;7.88;100.00;97149.54;109268;1254;64115;-73
2024/02/23 06:11:48;;;;;;;19.30;17.50;;;;;;;7.90;100.00;97150.66;109289;1254;60086;-72
2024/02/23 06:14:15;;;;;;;20.70;18.80;;;;;;;7.89;100.00;97156.94;109036;1254;59837;-73
2024/02/23 06:16:42;;;;;;;20.40;18.30;;;;;;;7.88;100.00;97164.72;109314;1254;67861;-74
2024/02/23 06:19:08;;;;;;;20.80;18.90;;;;;;;7.89;100.00;97164.48;109280;1254;60141;-73
2024/02/23 06:21:35;;;;;;;19.00;17.10;;;;;;;7.89;100.00;97163.42;109257;1254;65058;-73
2024/02/23 06:24:02;;;;;;;20.90;17.50;;;;;;;7.90;100.00;97166.55;109122;1254;59987;-73
2024/02/23 06:26:29;;;;;;;18.60;16.70;;;;;;;7.91;100.00;97168.46;109288;1254;59900;-73
2024/02/23 06:28:56;;;;;;;19.70;17.80;;;;;;;7.92;100.00;97175.77;108952;1256;66818;-73
2024/02/23 06:31:22;;;;;;;19.10;17.30;;;;;;;7.93;100.00;97181.52;109208;1255;61396;-73
2024/02/23 06:33:51;;;;;;;20.90;19.00;;;;;;;7.95;100.00;97186.52;108975;1256;65408;-73
2024/02/23 06:36:18;;;;;;;20.90;18.80;;;;;;;7.93;100.00;97185.97;109173;1255;59984;-74
2024/02/23 06:38:44;;;;;;;20.90;19.10;;;;;;;7.92;100.00;97193.08;109179;1255;60049;-73
2024/02/23 06:41:12;;;;;;;20.00;18.00;;;;;;;7.92;100.00;97190.60;109214;1256;66513;-72
2024/02/23 06:43:38;;;;;;;20.80;18.70;;;;;;;7.91;100.00;97197.54;109210;1255;61189;-73
2024/02/23 06:46:08;;;;;;;22.20;20.10;;;;;;;7.92;100.00;97206.70;109188;1255;65176;-73
2024/02/23 06:48:35;;;;;;;20.70;18.60;;;;;;;7.92;100.00;97208.14;109061;1256;59899;-73
2024/02/23 06:51:03;;;;;;;27.70;24.90;;;;;;;7.91;100.00;97216.00;109185;1255;59755;-74
2024/02/23 06:53:30;;;;;;;27.70;25.00;;;;;;;7.91;100.00;97216.52;109167;1255;68243;-72
2024/02/23 06:55:58;;;;;;;52.50;44.00;;;;;;;7.94;100.00;97217.91;109161;1255;60008;-73
2024/02/23 06:58:25;;;;;;;55.40;48.30;;;;;;;7.96;100.00;97225.10;109196;1255;65169;-74
2024/02/23 07:00:52;;;;;;;46.50;41.50;;;;;;;7.98;100.00;97232.55;109179;1255;59860;-73
2024/02/23 07:03:18;;;;;;;44.30;39.50;;;;;;;8.00;100.00;97235.58;109228;1255;59881;-74
2024/02/23 07:05:47;;;;;;;42.30;37.80;;;;;;;8.02;100.00;97242.60;108988;1255;67495;-72
2024/02/23 07:08:13;;;;;;;30.20;26.50;;;;;;;8.06;100.00;97249.23;109178;1255;61025;-74
2024/02/23 07:10:40;;;;;;;30.20;27.10;;;;;;;8.10;100.00;97252.05;108996;1256;63804;-74
2024/02/23 07:13:07;;;;;;;20.40;18.30;;;;;;;8.13;100.00;97260.65;109174;1255;59833;-74
2024/02/23 07:15:35;;;;;;;21.30;16.50;;;;;;;8.12;100.00;97265.31;109204;1255;60256;-73
2024/02/23 07:18:02;;;;;;;22.00;19.80;;;;;;;8.12;100.00;97262.30;109193;1255;67886;-73
2024/02/23 07:20:29;;;;;;;20.80;18.80;;;;;;;8.14;100.00;97264.09;109189;1256;60179;-75
2024/02/23 07:22:55;;;;;;;19.60;17.70;;;;;;;8.18;100.00;97269.23;109211;1255;64055;-73
2024/02/23 07:25:22;;;;;;;23.50;21.00;;;;;;;8.22;100.00;97272.22;108944;1255;59921;-73
2024/02/23 07:27:49;;;;;;;27.20;24.50;;;;;;;8.26;100.00;97276.54;109206;1256;59712;-73
2024/02/23 07:30:16;;;;;;;26.40;23.60;;;;;;;8.29;100.00;97275.19;109193;1255;67032;-74
2024/02/23 07:32:44;;;;;;;28.60;25.70;;;;;;;8.35;100.00;97278.42;109192;1255;61223;-73
2024/02/23 07:35:10;;;;;;;29.10;26.10;;;;;;;8.41;100.00;97283.08;109222;1255;66041;-72
2024/02/23 07:37:37;;;;;;;34.30;30.60;;;;;;;8.44;100.00;97287.73;109198;1255;60191;-74
2024/02/23 07:40:05;;;;;;;34.00;30.00;;;;;;;8.46;100.00;97295.58;108993;1255;59926;-72
2024/02/23 07:42:32;;;;;;;31.60;26.00;;;;;;;8.47;100.00;97297.91;109006;1256;67827;-73
2024/02/23 07:44:59;;;;;;;33.80;28.70;;;;;;;8.45;100.00;97298.50;109213;1255;61117;-78
2024/02/23 07:47:29;;;;;;;30.60;26.40;;;;;;;8.45;100.00;97297.44;109201;1255;64042;-73
2024/02/23 07:49:56;;;;;;;;;;;;;;;8.47;100.00;97299.33;108989;1256;59813;-73
2024/02/23 07:52:25;;;;;;;27.70;24.80;;;;;;;8.50;100.00;97300.67;109244;1255;59901;-73
2024/02/23 07:54:53;;;;;;;26.40;22.50;;;;;;;8.53;100.00;97297.05;109183;1255;66812;-73
2024/02/23 07:57:20;;;;;;;17.20;14.80;;;;;;;8.56;100.00;97294.11;109225;1255;61190;-72
2024/02/23 07:59:47;;;;;;;13.20;11.70;;;;;;;8.60;100.00;97296.34;108941;1256;62781;-73
2024/02/23 08:02:15;;;;;;;12.60;10.60;;;;;;;8.61;100.00;97301.35;109214;1255;59857;-72
2024/02/23 08:04:42;;;;;;;14.60;11.50;;;;;;;8.62;100.00;97300.74;108938;1255;60245;-73
2024/02/23 08:07:09;;;;;;;14.60;10.40;;;;;;;8.64;100.00;97301.83;109195;1255;67776;-74
2024/02/23 08:09:35;;;;;;;15.90;12.10;;;;;;;8.67;100.00;97299.23;109199;1255;60096;-73
2024/02/23 08:12:02;;;;;;;11.90;7.40;;;;;;;8.72;100.00;97301.83;109177;1255;65082;-73
2024/02/23 08:14:29;;;;;;;7.90;6.70;;;;;;;8.73;100.00;97301.19;109177;1255;60068;-73
2024/02/23 08:16:56;;;;;;;8.60;6.40;;;;;;;8.71;100.00;97299.73;109222;1255;59781;-73
2024/02/23 08:19:22;;;;;;;8.30;6.30;;;;;;;8.73;100.00;97296.27;109199;1255;66829;-74
2024/02/23 08:21:49;;;;;;;7.30;6.30;;;;;;;8.74;100.00;97300.02;109202;1255;60348;-73
2024/02/23 08:24:15;;;;;;;11.70;6.30;;;;;;;8.76;100.00;97305.01;109187;1255;64121;-73
2024/02/23 08:26:42;;;;;;;9.40;7.40;;;;;;;8.80;100.00;97307.29;109200;1256;59799;-72
2024/02/23 08:29:09;;;;;;;13.40;9.10;;;;;;;8.86;100.00;97304.70;108993;1256;59868;-73
2024/02/23 08:31:35;;;;;;;15.30;11.40;;;;;;;8.87;100.00;97310.78;109221;1255;66745;-73
2024/02/23 08:34:02;;;;;;;13.90;9.80;;;;;;;8.87;100.00;97310.95;109211;1255;60304;-74
2024/02/23 08:36:29;;;;;;;12.40;8.70;;;;;;;8.90;100.00;97313.34;109172;1256;65098;-72
2024/02/23 08:38:55;;;;;;;10.00;8.60;;;;;;;8.96;100.00;97317.09;109186;1255;59859;-73
2024/02/23 08:41:22;;;;;;;9.10;7.90;;;;;;;8.99;100.00;97317.00;109011;1256;59825;-72
2024/02/23 08:43:49;;;;;;;12.60;8.00;;;;;;;9.02;100.00;97315.34;109192;1255;67776;-74
2024/02/23 08:46:16;;;;;;;11.90;8.60;;;;;;;9.04;100.00;97319.64;109241;1255;60992;-73
2024/02/23 08:48:43;;;;;;;12.90;9.50;;;;;;;9.05;100.00;97324.34;109161;1255;64813;-73
2024/02/23 08:51:10;;;;;;;10.50;9.20;;;;;;;9.04;100.00;97327.02;109169;1255;59764;-72
2024/02/23 08:53:36;;;;;;;11.30;10.10;;;;;;;9.03;100.00;97330.82;109179;1255;59955;-73
2024/02/23 08:56:04;;;;;;;12.60;9.50;;;;;;;9.05;100.00;97336.50;109017;1256;67876;-73
2024/02/23 08:58:31;;;;;;;12.30;10.40;;;;;;;9.09;100.00;97338.09;108960;1255;59814;-73
2024/02/23 09:00:57;;;;;;;11.00;9.50;;;;;;;9.14;100.00;97339.95;109235;1256;65258;-73
2024/02/23 09:03:24;;;;;;;12.10;10.80;;;;;;;9.20;100.00;97336.59;109175;1255;59923;-73
2024/02/23 09:05:51;;;;;;;12.70;10.60;;;;;;;9.25;100.00;97340.02;109174;1255;59808;-73
2024/02/23 09:08:18;;;;;;;12.30;11.00;;;;;;;9.28;100.00;97339.64;109218;1255;67781;-73
2024/02/23 09:10:44;;;;;;;10.40;9.30;;;;;;;9.31;100.00;97342.20;109207;1255;60792;-72
2024/02/23 09:13:11;;;;;;;12.40;10.50;;;;;;;9.37;100.00;97346.26;109164;1255;65555;-72
2024/02/23 09:15:38;;;;;;;13.20;11.80;;;;;;;9.43;100.00;97347.29;109203;1255;60091;-73
2024/02/23 09:18:04;;;;;;;11.60;10.40;;;;;;;9.50;100.00;97349.37;109205;1255;59784;-74
2024/02/23 09:20:31;;;;;;;12.70;11.50;;;;;;;9.56;100.00;97350.09;108970;1256;66507;-73
2024/02/23 09:22:58;;;;;;;13.50;12.00;;;;;;;9.61;100.00;97348.90;109134;1256;59972;-74
2024/02/23 09:25:25;;;;;;;12.60;11.10;;;;;;;9.69;100.00;97355.33;109178;1255;64067;-72
2024/02/23 09:27:56;;;;;;;17.00;15.20;;;;;;;9.78;100.00;97362.42;108956;1256;59878;-74
2024/02/23 09:30:23;;;;;;;13.80;10.40;;;;;;;9.90;100.00;97367.92;109216;1255;59799;-73
2024/02/23 09:32:49;;;;;;;11.60;10.40;;;;;;;9.99;100.00;97375.49;109209;1255;67819;-73
2024/02/23 09:35:16;;;;;;;11.90;10.60;;;;;;;10.07;100.00;97383.09;109056;1255;61253;-72
2024/02/23 09:37:42;;;;;;;11.00;9.80;;;;;;;10.13;100.00;97385.04;109230;1255;64011;-73
2024/02/23 09:40:10;;;;;;;10.50;9.40;;;;;;;10.14;100.00;97391.72;109212;1255;59798;-73
2024/02/23 09:42:38;;;;;;;12.90;11.10;;;;;;;10.14;100.00;97397.18;108843;1255;60907;-73
2024/02/23 09:45:05;;;;;;;14.10;12.60;;;;;;;10.14;100.00;97405.70;109189;1255;66752;-73
2024/02/23 09:47:32;;;;;;;13.40;12.00;;;;;;;10.15;100.00;97408.33;109204;1255;59796;-73
2024/02/23 09:50:03;;;;;;;13.20;11.90;;;;;;;10.14;100.00;97411.40;109175;1255;64987;-73
2024/02/23 09:52:32;;;;;;;12.50;10.10;;;;;;;10.13;100.00;97410.97;109177;1255;59764;-74
2024/02/23 09:54:59;;;;;;;10.90;9.70;;;;;;;10.14;100.00;97411.44;109209;1255;60233;-73
2024/02/23 09:57:26;;;;;;;13.00;9.90;;;;;;;10.14;100.00;97414.59;109218;1255;66787;-74
2024/02/23 09:59:53;;;;;;;13.50;10.70;;;;;;;10.16;100.00;97415.48;109193;1255;60041;-74
2024/02/23 10:02:20;;;;;;;12.20;10.60;;;;;;;10.21;100.00;97413.42;109178;1255;65192;-73
2024/02/23 10:04:49;;;;;;;12.80;10.20;;;;;;;10.25;100.00;97412.33;109163;1256;59826;-72
2024/02/23 10:07:16;;;;;;;12.40;9.60;;;;;;;10.27;100.00;97410.72;109182;1256;59875;-74
2024/02/23 10:09:43;;;;;;;9.40;8.50;;;;;;;10.32;100.00;97413.48;109187;1256;65541;-74
2024/02/23 10:12:09;;;;;;;11.10;8.40;;;;;;;10.34;100.00;97418.33;109119;1256;61199;-73
2024/02/23 10:14:36;;;;;;;10.50;8.00;;;;;;;10.28;100.00;97416.72;109152;1256;65006;-76
2024/02/23 10:17:03;;;;;;;8.50;7.60;;;;;;;10.24;100.00;97420.94;109193;1255;59841;-73
2024/02/23 10:19:30;;;;;;;10.90;8.30;;;;;;;10.22;100.00;97416.50;109216;1256;59856;-73
2024/02/23 10:21:56;;;;;;;10.40;7.60;;;;;;;10.23;100.00;97410.95;109184;1255;67964;-72
2024/02/23 10:24:26;;;;;;;8.70;7.30;;;;;;;10.27;100.00;97404.39;109176;1256;60032;-74
2024/02/23 10:26:53;;;;;;;9.50;7.20;;;;;;;10.36;100.00;97406.62;108947;1256;62893;-73
2024/02/23 10:29:19;;;;;;;8.40;6.20;;;;;;;10.45;100.00;97411.61;109206;1255;60576;-73
2024/02/23 10:31:50;;;;;;;8.00;6.70;;;;;;;10.53;100.00;97405.57;109212;1256;60150;-74
2024/02/23 10:34:19;;;;;;;7.70;5.60;;;;;;;10.64;100.00;97403.83;109188;1256;65275;-74
2024/02/23 10:36:47;;;;;;;8.20;6.10;;;;;;;10.74;100.00;97409.98;109178;1256;61137;-74
2024/02/23 10:39:17;;;;;;;7.00;5.20;;;;;;;10.86;100.00;97413.15;109200;1256;62419;-73
2024/02/23 10:41:46;;;;;;;;;;;;;;;10.94;100.00;97407.59;109021;1256;59864;-73
2024/02/23 10:44:16;;;;;;;7.50;5.70;;;;;;;10.96;100.00;97407.55;109191;1256;59880;-73
2024/02/23 10:46:44;;;;;;;5.80;4.30;;;;;;;11.00;100.00;97412.38;109203;1255;68125;-72
2024/02/23 10:49:14;;;;;;;7.70;4.90;;;;;;;10.97;100.00;97417.63;109207;1256;60804;-73
2024/02/23 10:51:43;;;;;;;6.60;5.20;;;;;;;10.91;100.00;97417.08;108942;1256;64117;-74
2024/02/23 10:54:11;;;;;;;7.00;4.10;;;;;;;10.91;100.00;97422.06;109209;1256;59827;-74
2024/02/23 10:56:37;;;;;;;5.40;4.10;;;;;;;10.93;100.00;97421.02;109204;1255;59729;-73
2024/02/23 10:59:05;;;;;;;7.70;4.00;;;;;;;10.96;100.00;97418.27;109111;1258;66828;-73
2024/02/23 11:01:33;;;;;;;5.40;3.20;;;;;;;10.98;100.00;97417.30;109209;1256;60986;-74
2024/02/23 11:04:00;;;;;;;3.70;2.90;;;;;;;10.92;100.00;97426.77;109170;1255;65151;-73
2024/02/23 11:06:27;;;;;;;4.10;2.80;;;;;;;10.83;100.00;97431.38;109159;1255;59882;-73
2024/02/23 11:09:04;;;;;;;3.30;2.50;;;;;;;10.80;100.00;97434.66;109176;1256;59878;-73
2024/02/23 11:11:32;;;;;;;2.80;2.60;;;;;;;10.77;100.00;97439.37;109191;1256;68089;-73
2024/02/23 11:14:03;;;;;;;4.30;3.50;;;;;;;10.73;100.00;97435.12;109164;1255;60143;-73
2024/02/23 11:16:32;;;;;;;4.50;2.60;;;;;;;10.69;100.00;97430.89;109159;1255;65044;-72